createdAt,value
2019-04-26T00:01:01.305Z,84.85
2019-04-26T00:03:45.138Z,84.79
2019-04-26T00:06:16.731Z,84.61
2019-04-26T00:08:52.336Z,84.20
2019-04-26T00:11:37.948Z,83.72
2019-04-26T00:14:37.428Z,83.35
2019-04-26T00:17:18.755Z,83.37
2019-04-26T00:19:49.703Z,83.76
2019-04-26T00:22:21.221Z,83.93
2019-04-26T00:24:52.131Z,83.45
2019-04-26T00:27:22.913Z,83.36
2019-04-26T00:29:53.688Z,83.85
2019-04-26T00:32:24.474Z,83.89
2019-04-26T00:34:55.197Z,84.03
2019-04-26T00:37:25.847Z,83.88
2019-04-26T00:39:56.688Z,83.80
2019-04-26T00:42:27.970Z,84.10
2019-04-26T00:44:58.991Z,84.13
2019-04-26T00:47:30.043Z,84.26
2019-04-26T00:50:01.356Z,84.54
2019-04-26T00:52:32.558Z,84.45
2019-04-26T00:55:03.812Z,84.10
2019-04-26T00:57:36.493Z,84.04
2019-04-26T01:00:09.191Z,83.91
2019-04-26T01:02:47.127Z,83.84
2019-04-26T01:05:18.862Z,84.04
2019-04-26T01:07:51.977Z,84.70
2019-04-26T01:10:24.415Z,84.48
2019-04-26T01:12:55.078Z,84.53
2019-04-26T01:15:26.593Z,84.79
2019-04-26T01:17:57.729Z,85.11
2019-04-26T01:20:31.235Z,85.20
2019-04-26T01:23:04.805Z,85.17
2019-04-26T01:25:47.946Z,85.28
2019-04-26T01:28:26.085Z,85.29
2019-04-26T01:30:57.527Z,85.33
2019-04-26T01:33:28.478Z,85.39
2019-04-26T01:35:59.341Z,85.46
2019-04-26T01:38:31.863Z,85.58
2019-04-26T01:41:07.952Z,85.72
2019-04-26T01:43:52.002Z,85.60
2019-04-26T01:46:31.033Z,85.52
2019-04-26T01:49:06.969Z,85.44
2019-04-26T01:51:42.600Z,85.53
2019-04-26T01:54:16.149Z,85.68
2019-04-26T01:56:47.587Z,85.80
2019-04-26T01:59:19.526Z,85.92
2019-04-26T02:02:09.339Z,86.11
2019-04-26T02:04:43.240Z,86.23
2019-04-26T02:07:16.483Z,85.89
2019-04-26T02:09:48.059Z,85.94
2019-04-26T02:12:18.827Z,86.09
2019-04-26T02:14:51.167Z,86.16
2019-04-26T02:17:22.957Z,86.21
2019-04-26T02:19:55.039Z,86.02
2019-04-26T02:22:32.201Z,86.12
2019-04-26T02:25:03.165Z,86.21
2019-04-26T02:27:34.582Z,86.21
2019-04-26T02:30:08.495Z,86.18
2019-04-26T02:32:39.792Z,86.46
2019-04-26T02:35:10.891Z,86.28
2019-04-26T02:37:42.234Z,85.99
2019-04-26T02:40:16.889Z,85.85
2019-04-26T02:42:48.622Z,85.88
2019-04-26T02:45:51.478Z,85.90
2019-04-26T02:48:58.737Z,85.98
2019-04-26T02:51:36.337Z,85.80
2019-04-26T02:54:15.174Z,85.89
2019-04-26T02:56:48.527Z,85.96
2019-04-26T02:59:44.780Z,85.90
2019-04-26T03:02:26.253Z,85.87
2019-04-26T03:05:03.562Z,85.61
2019-04-26T03:08:14.596Z,85.58
2019-04-26T03:10:50.285Z,86.08
2019-04-26T03:13:32.009Z,86.18
2019-04-26T03:16:32.654Z,86.02
2019-04-26T03:19:15.034Z,86.15
2019-04-26T03:22:10.264Z,86.06
2019-04-26T03:25:07.612Z,85.88
2019-04-26T03:27:52.985Z,85.82
2019-04-26T03:30:51.077Z,85.67
2019-04-26T03:33:52.449Z,85.45
2019-04-26T03:36:53.873Z,85.56
2019-04-26T03:39:42.408Z,85.51
2019-04-26T03:43:00.301Z,85.32
2019-04-26T03:45:57.079Z,85.43
2019-04-26T03:48:43.478Z,85.28
2019-04-26T03:51:31.424Z,84.91
2019-04-26T03:54:09.259Z,84.74
2019-04-26T03:57:04.749Z,84.84
2019-04-26T03:59:52.700Z,84.77
2019-04-26T04:02:38.745Z,84.26
2019-04-26T04:05:26.794Z,84.00
2019-04-26T04:08:00.221Z,83.45
2019-04-26T04:10:38.090Z,82.94
2019-04-26T04:13:51.536Z,82.77
2019-04-26T04:16:42.849Z,82.22
2019-04-26T04:19:55.744Z,81.72
2019-04-26T04:22:29.097Z,81.13
2019-04-26T04:25:03.156Z,80.38
2019-04-26T04:28:03.337Z,79.72
2019-04-26T04:30:47.711Z,79.10
2019-04-26T04:34:02.484Z,78.70
2019-04-26T04:36:48.841Z,78.06
2019-04-26T04:39:29.191Z,78.22
2019-04-26T04:42:20.092Z,77.66
2019-04-26T04:45:26.723Z,77.49
2019-04-26T04:48:44.585Z,77.45
2019-04-26T04:51:27.357Z,77.29
2019-04-26T04:54:08.633Z,76.30
2019-04-26T04:57:13.314Z,76.21
2019-04-26T05:00:49.250Z,75.76
2019-04-26T05:03:43.923Z,75.82
2019-04-26T05:06:54.839Z,76.24
2019-04-26T05:09:34.044Z,76.42
2019-04-26T05:12:14.559Z,75.29
2019-04-26T05:15:15.652Z,73.99
2019-04-26T05:18:29.643Z,73.78
2019-04-26T05:21:25.612Z,72.42
2019-04-26T05:24:31.540Z,72.20
2019-04-26T05:27:35.933Z,72.20
2019-04-26T05:31:18.467Z,72.08
2019-04-26T05:34:36.167Z,72.68
2019-04-26T05:37:39.341Z,73.18
2019-04-26T05:40:58.694Z,71.55
2019-04-26T05:43:58.020Z,70.35
2019-04-26T05:47:04.165Z,70.50
2019-04-26T05:50:16.490Z,70.51
2019-04-26T05:53:15.009Z,71.18
2019-04-26T05:56:30.387Z,72.03
2019-04-26T05:59:20.405Z,72.47
2019-04-26T06:02:44.160Z,71.83
2019-04-26T06:05:49.756Z,72.23
2019-04-26T06:08:51.194Z,71.29
2019-04-26T06:11:35.921Z,69.75
2019-04-26T06:14:51.643Z,67.95
2019-04-26T06:18:14.451Z,68.75
2019-04-26T06:21:19.159Z,69.64
2019-04-26T06:24:43.509Z,70.25
2019-04-26T06:27:58.392Z,68.44
2019-04-26T06:30:50.639Z,62.46
2019-04-26T06:33:41.294Z,60.63
2019-04-26T06:36:19.522Z,61.29
2019-04-26T06:39:29.780Z,61.53
2019-04-26T06:42:36.778Z,61.06
2019-04-26T06:46:28.122Z,56.52
2019-04-26T06:49:32.827Z,55.60
2019-04-26T06:52:09.314Z,55.97
2019-04-26T06:54:59.748Z,54.29
2019-04-26T06:58:24.920Z,55.88
2019-04-26T07:01:22.041Z,50.90
2019-04-26T07:04:35.419Z,50.90
2019-04-26T07:07:55.296Z,49.97
2019-04-26T07:10:59.593Z,47.23
2019-04-26T07:13:55.567Z,44.04
2019-04-26T07:16:43.477Z,43.91
2019-04-26T07:19:23.417Z,43.77
2019-04-26T07:22:35.103Z,43.76
2019-04-26T07:25:29.442Z,42.25
2019-04-26T07:28:28.353Z,43.72
2019-04-26T07:31:24.627Z,44.25
2019-04-26T07:34:42.375Z,45.15
2019-04-26T07:37:48.975Z,45.16
2019-04-26T07:41:11.870Z,46.13
2019-04-26T07:44:31.926Z,49.29
2019-04-26T07:47:46.484Z,50.92
2019-04-26T07:50:58.820Z,52.80
2019-04-26T07:54:09.312Z,54.35
2019-04-26T07:57:04.582Z,55.08
2019-04-26T08:00:13.301Z,57.78
2019-04-26T08:03:12.805Z,58.13
2019-04-26T08:06:02.966Z,57.99
2019-04-26T08:08:42.338Z,57.98
2019-04-26T08:11:30.435Z,58.46
2019-04-26T08:14:32.397Z,58.53
2019-04-26T08:17:28.349Z,59.12
2019-04-26T08:20:09.657Z,60.53
2019-04-26T08:22:42.646Z,60.78
2019-04-26T08:25:17.655Z,62.04
2019-04-26T08:27:50.831Z,62.26
2019-04-26T08:30:24.457Z,63.32
2019-04-26T08:33:02.147Z,63.89
2019-04-26T08:35:36.681Z,63.59
2019-04-26T08:38:16.075Z,63.63
2019-04-26T08:40:45.882Z,63.54
2019-04-26T08:43:36.778Z,62.87
2019-04-26T08:46:38.157Z,62.17
2019-04-26T08:49:28.992Z,63.51
2019-04-26T08:52:13.711Z,63.73
2019-04-26T08:54:43.126Z,63.05
2019-04-26T08:57:17.546Z,63.06
2019-04-26T08:59:52.381Z,64.18
2019-04-26T09:02:40.972Z,65.01
2019-04-26T09:05:51.485Z,63.61
2019-04-26T09:08:26.359Z,64.00
2019-04-26T09:10:59.955Z,64.58
2019-04-26T09:13:34.776Z,64.28
2019-04-26T09:16:13.098Z,62.10
2019-04-26T09:18:52.411Z,62.40
2019-04-26T09:21:19.429Z,63.55
2019-04-26T09:24:10.039Z,63.13
2019-04-26T09:26:48.319Z,62.61
2019-04-26T09:29:30.337Z,62.54
2019-04-26T09:32:09.920Z,61.80
2019-04-26T09:34:41.608Z,61.89
2019-04-26T09:37:13.620Z,61.35
2019-04-26T09:39:44.469Z,62.27
2019-04-26T09:42:23.559Z,62.57
2019-04-26T09:45:08.437Z,62.66
2019-04-26T09:47:52.972Z,63.31
2019-04-26T09:50:33.088Z,62.69
2019-04-26T09:53:05.454Z,63.97
2019-04-26T09:55:36.475Z,64.66
2019-04-26T09:58:08.718Z,64.61
2019-04-26T10:00:44.085Z,64.81
2019-04-26T10:03:14.620Z,65.37
2019-04-26T10:05:45.751Z,65.71
2019-04-26T10:08:16.760Z,65.56
2019-04-26T10:10:47.703Z,65.26
2019-04-26T10:13:56.535Z,65.24
2019-04-26T10:17:04.005Z,65.28
2019-04-26T10:19:53.781Z,65.08
2019-04-26T10:22:27.519Z,64.43
2019-04-26T10:25:02.639Z,63.64
2019-04-26T10:27:32.530Z,64.43
2019-04-26T10:30:09.007Z,64.86
2019-04-26T10:32:36.046Z,64.17
2019-04-26T10:35:07.074Z,63.58
2019-04-26T10:37:39.765Z,64.17
2019-04-26T10:40:10.603Z,65.74
2019-04-26T10:42:41.868Z,65.11
2019-04-26T10:45:14.698Z,64.79
2019-04-26T10:47:45.627Z,64.06
2019-04-26T10:50:17.016Z,63.66
2019-04-26T10:53:15.958Z,64.18
2019-04-26T10:56:05.519Z,64.91
2019-04-26T10:58:44.051Z,65.79
2019-04-26T11:01:16.448Z,65.54
2019-04-26T11:03:47.423Z,64.39
2019-04-26T11:06:19.491Z,64.05
2019-04-26T11:08:51.131Z,64.36
2019-04-26T11:11:22.443Z,63.96
2019-04-26T11:13:54.304Z,64.11
2019-04-26T11:16:25.654Z,63.88
2019-04-26T11:18:57.264Z,64.82
2019-04-26T11:21:30.153Z,64.43
2019-04-26T11:24:01.231Z,64.74
2019-04-26T11:26:34.820Z,65.46
2019-04-26T11:29:04.274Z,65.42
2019-04-26T11:31:37.318Z,63.83
2019-04-26T11:34:08.684Z,63.70
2019-04-26T11:36:41.839Z,65.71
2019-04-26T11:39:17.032Z,65.81
2019-04-26T11:41:49.022Z,65.77
2019-04-26T11:44:23.372Z,65.33
2019-04-26T11:46:54.726Z,65.62
2019-04-26T11:49:26.926Z,66.17
2019-04-26T11:52:02.503Z,63.44
2019-04-26T11:54:31.809Z,62.76
2019-04-26T11:57:03.663Z,62.98
2019-04-26T11:59:35.825Z,64.23
2019-04-26T12:02:08.228Z,63.60
2019-04-26T12:05:06.958Z,63.59
2019-04-26T12:07:43.128Z,64.70
2019-04-26T12:10:14.509Z,64.86
2019-04-26T12:12:47.062Z,64.92
2019-04-26T12:15:29.747Z,63.78
2019-04-26T12:17:58.383Z,64.76
2019-04-26T12:20:26.942Z,65.15
2019-04-26T12:22:58.273Z,63.15
2019-04-26T12:25:31.074Z,63.50
2019-04-26T12:28:06.055Z,62.74
2019-04-26T12:30:35.414Z,63.50
2019-04-26T12:33:06.453Z,64.14
2019-04-26T12:35:38.649Z,63.46
2019-04-26T12:38:10.418Z,62.37
2019-04-26T12:40:46.120Z,62.96
2019-04-26T12:43:15.907Z,63.17
2019-04-26T12:46:05.055Z,62.26
2019-04-26T12:48:36.382Z,62.62
2019-04-26T12:51:08.251Z,61.84
2019-04-26T12:53:41.042Z,63.47
2019-04-26T12:56:11.993Z,62.99
2019-04-26T12:58:45.626Z,60.12
2019-04-26T13:01:17.137Z,60.81
2019-04-26T13:04:04.653Z,61.76
2019-04-26T13:06:40.494Z,60.72
2019-04-26T13:09:22.016Z,60.12
2019-04-26T13:12:06.878Z,60.52
2019-04-26T13:14:53.626Z,61.28
2019-04-26T13:17:31.320Z,61.04
2019-04-26T13:20:03.498Z,62.41
2019-04-26T13:22:45.296Z,62.41
2019-04-26T13:25:15.533Z,60.64
2019-04-26T13:27:41.590Z,61.25
2019-04-26T13:30:12.408Z,61.50
2019-04-26T13:32:44.426Z,60.50
2019-04-26T13:35:16.229Z,59.99
2019-04-26T13:37:46.906Z,60.80
2019-04-26T13:40:17.867Z,61.82
2019-04-26T13:42:51.467Z,60.47
2019-04-26T13:45:36.581Z,60.96
2019-04-26T13:48:35.278Z,61.79
2019-04-26T13:51:08.437Z,62.05
2019-04-26T13:53:41.232Z,61.96
2019-04-26T13:56:12.270Z,60.36
2019-04-26T13:58:44.552Z,60.42
2019-04-26T14:01:18.708Z,60.82
2019-04-26T14:03:48.128Z,62.45
2019-04-26T14:06:18.825Z,60.91
2019-04-26T14:08:49.531Z,59.99
2019-04-26T14:11:27.959Z,60.37
2019-04-26T14:13:55.478Z,61.27
2019-04-26T14:16:27.500Z,59.79
2019-04-26T14:18:58.405Z,60.86
2019-04-26T14:21:33.105Z,61.80
2019-04-26T14:24:23.857Z,61.16
2019-04-26T14:26:57.021Z,61.41
2019-04-26T14:29:32.415Z,59.96
2019-04-26T14:32:07.848Z,61.55
2019-04-26T14:34:45.223Z,61.17
2019-04-26T14:37:25.813Z,60.02
2019-04-26T14:40:16.799Z,60.03
2019-04-26T14:42:45.835Z,59.70
2019-04-26T14:45:23.944Z,59.69
2019-04-26T14:48:00.190Z,60.19
2019-04-26T14:50:32.126Z,61.41
2019-04-26T14:53:04.731Z,63.33
2019-04-26T14:55:42.689Z,62.55
2019-04-26T14:58:30.279Z,61.98
2019-04-26T15:01:06.009Z,63.51
2019-04-26T15:03:45.693Z,62.26
2019-04-26T15:06:23.797Z,62.40
2019-04-26T15:08:56.765Z,66.03
2019-04-26T15:11:32.194Z,64.50
2019-04-26T15:14:04.727Z,66.38
2019-04-26T15:16:41.487Z,66.77
2019-04-26T15:19:14.053Z,67.10
2019-04-26T15:21:45.002Z,63.73
2019-04-26T15:24:15.797Z,65.43
2019-04-26T15:26:46.678Z,67.35
2019-04-26T15:29:21.328Z,68.79
2019-04-26T15:31:53.626Z,68.32
2019-04-26T15:34:26.416Z,67.34
2019-04-26T15:37:34.595Z,69.01
2019-04-26T15:40:34.888Z,69.44
2019-04-26T15:43:28.620Z,69.34
2019-04-26T15:46:13.505Z,68.93
2019-04-26T15:49:22.494Z,70.38
2019-04-26T15:51:56.388Z,68.92
2019-04-26T15:54:26.536Z,71.06
2019-04-26T15:56:57.581Z,71.95
2019-04-26T15:59:28.325Z,70.05
2019-04-26T16:01:59.727Z,72.21
2019-04-26T16:04:32.432Z,70.81
2019-04-26T16:07:03.388Z,69.48
2019-04-26T16:09:34.104Z,69.41
2019-04-26T16:12:05.264Z,69.35
2019-04-26T16:14:36.996Z,69.12
2019-04-26T16:17:08.167Z,69.12
2019-04-26T16:19:39.469Z,68.82
2019-04-26T16:22:11.656Z,69.42
2019-04-26T16:24:44.060Z,69.61
2019-04-26T16:27:15.808Z,69.27
2019-04-26T16:30:10.720Z,71.05
2019-04-26T16:32:54.085Z,70.76
2019-04-26T16:35:28.072Z,71.71
2019-04-26T16:37:59.837Z,72.47
2019-04-26T16:40:28.029Z,73.71
2019-04-26T16:42:59.702Z,72.59
2019-04-26T16:45:32.689Z,72.18
2019-04-26T16:48:03.901Z,72.60
2019-04-26T16:50:44.013Z,73.09
2019-04-26T16:53:23.207Z,75.06
2019-04-26T16:55:49.148Z,75.85
2019-04-26T16:58:12.637Z,75.96
2019-04-26T17:00:51.637Z,76.47
2019-04-26T17:03:16.856Z,77.51
2019-04-26T17:05:48.614Z,78.11
2019-04-26T17:08:20.435Z,78.44
2019-04-26T17:10:56.320Z,78.72
2019-04-26T17:13:29.835Z,79.06
2019-04-26T17:15:59.905Z,79.31
2019-04-26T17:18:32.329Z,79.44
2019-04-26T17:21:04.647Z,79.96
2019-04-26T17:24:00.835Z,80.62
2019-04-26T17:26:38.410Z,80.94
2019-04-26T17:29:09.473Z,81.18
2019-04-26T17:31:40.246Z,81.33
2019-04-26T17:34:17.170Z,81.68
2019-04-26T17:36:52.290Z,82.33
2019-04-26T17:39:23.689Z,82.67
2019-04-26T17:41:55.304Z,82.48
2019-04-26T17:44:28.475Z,82.45
2019-04-26T17:47:05.056Z,82.45
2019-04-26T17:49:39.074Z,82.75
2019-04-26T17:52:09.567Z,82.58
2019-04-26T17:54:48.889Z,82.49
2019-04-26T17:57:15.953Z,82.70
2019-04-26T17:59:49.042Z,82.88
2019-04-26T18:02:38.744Z,83.01
2019-04-26T18:05:00.818Z,83.35
2019-04-26T18:07:43.000Z,83.79
2019-04-26T18:10:04.705Z,83.65
2019-04-26T18:12:39.382Z,83.82
2019-04-26T18:15:10.362Z,83.79
2019-04-26T18:18:04.115Z,83.89
2019-04-26T18:20:51.262Z,84.39
2019-04-26T18:23:23.369Z,84.24
2019-04-26T18:25:54.529Z,84.07
2019-04-26T18:28:25.927Z,84.37
2019-04-26T18:30:57.203Z,84.60
2019-04-26T18:33:29.182Z,84.97
2019-04-26T18:36:00.382Z,85.15
2019-04-26T18:38:31.224Z,85.21
2019-04-26T18:41:03.615Z,85.23
2019-04-26T18:43:34.959Z,85.40
2019-04-26T18:46:12.817Z,85.41
2019-04-26T18:48:44.078Z,85.27
2019-04-26T18:51:14.989Z,85.42
2019-04-26T18:54:17.727Z,85.44
2019-04-26T18:56:51.098Z,85.34
2019-04-26T18:59:23.344Z,85.58
2019-04-26T19:01:55.035Z,85.90
2019-04-26T19:04:26.919Z,85.79
2019-04-26T19:06:58.178Z,85.87
2019-04-26T19:09:29.085Z,86.04
2019-04-26T19:12:01.748Z,85.80
2019-04-26T19:15:02.469Z,85.92
2019-04-26T19:17:45.359Z,85.71
2019-04-26T19:20:26.185Z,86.15
2019-04-26T19:23:03.026Z,86.35
2019-04-26T19:25:40.549Z,86.50
2019-04-26T19:28:08.250Z,86.52
2019-04-26T19:30:43.617Z,86.42
2019-04-26T19:33:16.918Z,86.30
2019-04-26T19:35:47.418Z,86.46
2019-04-26T19:38:17.593Z,86.56
2019-04-26T19:40:48.986Z,86.54
2019-04-26T19:43:30.182Z,86.59
2019-04-26T19:46:12.848Z,86.89
2019-04-26T19:49:03.546Z,86.88
2019-04-26T19:51:56.704Z,86.55
2019-04-26T20:17:04.411Z,86.41
2019-04-26T20:19:37.525Z,86.47
2019-04-26T20:22:08.086Z,86.49
2019-04-26T20:24:39.297Z,86.70
2019-04-26T20:27:15.646Z,86.70
2019-04-26T20:29:47.440Z,86.56
2019-04-26T20:32:33.693Z,86.13
2019-04-26T20:35:19.695Z,86.36
2019-04-26T20:37:52.138Z,85.97
2019-04-26T20:40:25.516Z,85.71
2019-04-26T20:43:01.628Z,85.76
2019-04-26T20:45:38.660Z,85.64
2019-04-26T20:48:02.320Z,85.55
2019-04-26T20:50:36.761Z,85.72
2019-04-26T20:53:07.381Z,85.70
2019-04-26T20:55:38.499Z,85.44
2019-04-26T20:58:09.485Z,85.27
2019-04-26T21:00:53.531Z,85.03
2019-04-26T21:03:23.066Z,85.15
2019-04-26T21:05:46.832Z,85.05
2019-04-26T21:08:25.752Z,84.80
2019-04-26T21:10:56.148Z,84.77
2019-04-26T21:13:30.744Z,85.02
2019-04-26T21:16:02.661Z,85.17
2019-04-26T21:18:33.754Z,85.16
2019-04-26T21:21:05.823Z,84.75
2019-04-26T21:23:40.055Z,84.63
2019-04-26T21:26:32.196Z,84.76
2019-04-26T21:29:34.190Z,84.83
2019-04-26T21:32:30.782Z,84.91
2019-04-26T21:35:04.773Z,85.17
2019-04-26T21:37:43.208Z,85.26
2019-04-26T21:40:23.217Z,85.35
2019-04-26T21:42:59.269Z,84.99
2019-04-26T21:45:31.017Z,84.98
2019-04-26T21:48:02.629Z,85.15
2019-04-26T21:50:38.594Z,85.53
2019-04-26T21:53:07.040Z,85.59
2019-04-26T21:55:38.734Z,85.71
2019-04-26T21:58:09.486Z,85.81
2019-04-26T22:00:58.887Z,85.50
2019-04-26T22:03:29.897Z,85.16
2019-04-26T22:06:00.709Z,85.11
2019-04-26T22:08:34.773Z,85.05
2019-04-26T22:11:05.591Z,85.12
2019-04-26T22:13:55.920Z,85.39
2019-04-26T22:16:41.095Z,85.46
2019-04-26T22:19:32.462Z,85.05
2019-04-26T22:22:19.732Z,85.18
2019-04-26T22:24:51.147Z,85.26
2019-04-26T22:27:25.234Z,85.17
2019-04-26T22:29:55.097Z,85.17
2019-04-26T22:32:26.142Z,85.01
2019-04-26T22:34:56.907Z,85.08
2019-04-26T22:37:30.072Z,85.28
2019-04-26T22:40:03.543Z,85.49
2019-04-26T22:42:39.905Z,85.62
2019-04-26T22:45:15.704Z,85.44
2019-04-26T22:48:11.571Z,85.55
2019-04-26T22:50:43.654Z,85.75
2019-04-26T22:53:14.672Z,85.54
2019-04-26T22:55:45.259Z,85.33
2019-04-26T22:58:20.623Z,85.57
2019-04-26T23:00:49.941Z,85.74
2019-04-26T23:03:20.840Z,85.58
2019-04-26T23:05:53.331Z,85.57
2019-04-26T23:08:24.439Z,85.67
2019-04-26T23:10:57.267Z,85.60
2019-04-26T23:13:50.004Z,85.44
2019-04-26T23:17:01.689Z,85.57
2019-04-26T23:19:39.338Z,85.79
2019-04-26T23:22:12.786Z,85.91
2019-04-26T23:24:44.873Z,85.75
2019-04-26T23:27:20.497Z,85.74
2019-04-26T23:29:49.935Z,85.90
2019-04-26T23:32:20.839Z,86.19
2019-04-26T23:34:53.132Z,86.29
2019-04-26T23:37:27.620Z,86.30
2019-04-26T23:39:57.862Z,86.54
2019-04-26T23:42:29.272Z,86.68
2019-04-26T23:45:00.034Z,86.47
2019-04-26T23:47:32.081Z,86.51
2019-04-26T23:50:03.668Z,86.56
2019-04-26T23:52:34.362Z,86.50
2019-04-26T23:55:08.759Z,86.56
2019-04-26T23:57:38.083Z,86.48
